Leandro N. Alem, Argentina
Current Conditions -  °F | °C
As of 2:00 PM on Saturday 20 Dec 2014 (Local Time) from SAAR Reporting Station
Broken Clouds Broken Clouds  
Wind Chill: 22°   Ceiling: 10000
Heat Index: 22°   Visibility: 6mi
Dew Point: 18°   Wind: 14mph
Humidity: 78%   Direction: 180°S
Pressure: 29.56"   Gusts: NA
Location:  34.5°S, 61.4°W
Report Text: SAAR 201700Z 18012KT 9999 SCT018 SCT023BKN100 22/18 Q1001 RETS
Loading
Personal Weather Stations






























Interactive Weather Map New forecast layout! Learn more

10-Day Weather Forecast

Advertisements
Track Severe Weather on mobile